Time;durP1;ratioP1;P1;durP2;ratioP2;P2;SDS_P1;SDS_P2;PMS_P1;PMS_P2;Temp;Humidity;BMP_temperature;BMP_pressure;BME280_temperature;BME280_humidity;BME280_pressure;Samples;Min_cycle;Max_cycle;Signal;HPM_P1;HPM_P2
2020/12/07 00:01:08;;;;;;;32.65;14.00;;;;;;;-0.72;83.66;99590.53;4942233;29;20569;-50
2020/12/07 00:03:34;;;;;;;37.80;16.25;;;;;;;-0.74;83.52;99592.72;4952777;28;20055;-52
2020/12/07 00:06:02;;;;;;;40.22;17.52;;;;;;;-0.77;83.65;99578.94;4972221;28;20043;-51
2020/12/07 00:08:28;;;;;;;35.42;18.10;;;;;;;-0.80;83.51;99583.06;4977810;28;20481;-48
2020/12/07 00:10:56;;;;;;;40.75;17.83;;;;;;;-0.80;83.50;99574.91;4977526;28;20125;-49
2020/12/07 00:13:23;;;;;;;28.65;14.35;;;;;;;-0.85;83.42;99583.13;4963527;28;20462;-50
2020/12/07 00:15:49;;;;;;;21.23;11.30;;;;;;;-0.88;83.55;99575.59;4957284;28;20039;-52
2020/12/07 00:18:15;;;;;;;25.60;12.88;;;;;;;-0.89;83.63;99568.53;4958319;29;20043;-49
2020/12/07 00:20:44;;;;;;;23.08;12.32;;;;;;;-0.85;83.43;99566.81;4957743;29;20043;-49
2020/12/07 00:23:11;;;;;;;28.15;11.93;;;;;;;-0.89;83.34;99549.50;4958109;29;20122;-50
2020/12/07 00:25:38;;;;;;;20.35;11.93;;;;;;;-0.91;83.39;99564.50;4956855;29;20051;-52
2020/12/07 00:28:05;;;;;;;23.33;11.25;;;;;;;-0.91;83.85;99562.59;4957824;29;20109;-49
2020/12/07 00:30:31;;;;;;;22.48;10.65;;;;;;;-0.90;83.48;99555.25;4957486;29;20066;-52
2020/12/07 00:32:57;;;;;;;20.42;9.68;;;;;;;-0.91;83.40;99565.31;4957136;29;20046;-49
2020/12/07 00:35:23;;;;;;;17.05;8.00;;;;;;;-0.93;83.07;99559.38;4956630;29;20102;-51
2020/12/07 00:37:50;;;;;;;18.63;9.82;;;;;;;-0.95;83.03;99560.75;4957898;29;20478;-49
2020/12/07 00:40:16;;;;;;;18.55;9.63;;;;;;;-0.97;83.26;99555.63;4956987;29;20078;-52
2020/12/07 00:42:43;;;;;;;19.73;10.55;;;;;;;-0.95;83.04;99553.41;4957844;29;20043;-49
2020/12/07 00:45:10;;;;;;;18.25;9.25;;;;;;;-0.95;83.06;99558.84;4956228;29;20043;-52
2020/12/07 00:47:36;;;;;;;20.30;10.50;;;;;;;-0.93;83.05;99551.22;4957251;29;20047;-50
2020/12/07 00:50:04;;;;;;;19.25;9.95;;;;;;;-0.92;83.03;99539.25;4956241;29;20043;-51
2020/12/07 00:52:30;;;;;;;23.42;11.18;;;;;;;-0.93;82.61;99556.66;4957496;28;20110;-52
2020/12/07 00:54:56;;;;;;;22.27;11.40;;;;;;;-0.95;82.63;99555.31;4956527;28;20040;-50
2020/12/07 00:57:22;;;;;;;26.38;14.50;;;;;;;-0.98;82.29;99550.50;4956579;28;20070;-50
2020/12/07 00:59:49;;;;;;;20.75;12.05;;;;;;;-1.00;82.54;99550.78;4957087;29;20100;-49
2020/12/07 01:02:15;;;;;;;29.98;13.13;;;;;;;-1.00;82.78;99552.69;4955945;29;20070;-52
2020/12/07 01:04:41;;;;;;;24.90;12.90;;;;;;;-1.00;82.37;99558.94;4957267;29;20078;-52
2020/12/07 01:07:07;;;;;;;23.83;13.35;;;;;;;-1.07;82.43;99547.66;4939684;29;20122;-50
2020/12/07 01:09:34;;;;;;;21.25;11.30;;;;;;;-1.10;82.74;99556.41;4942130;29;20053;-53
2020/12/07 01:12:02;;;;;;;20.42;11.07;;;;;;;-1.10;82.65;99552.88;4956227;29;20047;-50
2020/12/07 01:14:29;;;;;;;23.92;11.27;;;;;;;-1.13;82.64;99542.59;4955881;28;20087;-54
2020/12/07 01:16:58;;;;;;;18.15;10.57;;;;;;;-1.16;82.78;99538.56;4960334;28;20048;-53
2020/12/07 01:19:25;;;;;;;21.63;11.70;;;;;;;-1.18;83.14;99529.13;4954355;29;20046;-49
2020/12/07 01:21:51;;;;;;;23.98;13.23;;;;;;;-1.20;83.16;99525.91;4954007;28;20130;-49
2020/12/07 01:24:18;;;;;;;24.92;12.77;;;;;;;-1.16;82.84;99535.84;4954623;29;20106;-50
2020/12/07 01:26:44;;;;;;;19.80;12.50;;;;;;;-1.19;82.82;99517.44;4954291;29;20082;-49
2020/12/07 01:29:10;;;;;;;20.20;10.32;;;;;;;-1.21;83.03;99525.09;4954001;29;20054;-47
2020/12/07 01:31:36;;;;;;;22.77;11.68;;;;;;;-1.23;83.13;99527.31;4965321;28;20074;-48
2020/12/07 01:34:03;;;;;;;19.95;9.55;;;;;;;-1.24;82.96;99531.09;4965424;28;20131;-49
2020/12/07 01:36:29;;;;;;;19.25;10.43;;;;;;;-1.26;83.16;99531.41;4956625;29;20078;-53
2020/12/07 01:38:56;;;;;;;17.88;9.35;;;;;;;-1.26;83.54;99527.88;4955166;29;20130;-50
2020/12/07 01:41:23;;;;;;;16.95;9.20;;;;;;;-1.21;83.31;99530.50;4956967;29;20047;-49
2020/12/07 01:43:49;;;;;;;20.77;10.60;;;;;;;-1.19;83.09;99536.44;4957056;29;20043;-50
2020/12/07 01:46:20;;;;;;;14.18;9.40;;;;;;;-1.18;83.32;99546.22;4966097;28;20081;-51
2020/12/07 01:48:47;;;;;;;16.20;9.57;;;;;;;-1.20;83.26;99537.56;4957754;28;20043;-51
2020/12/07 01:51:15;;;;;;;18.10;9.80;;;;;;;-1.23;83.18;99532.72;4938969;29;20039;-50
2020/12/07 01:53:42;;;;;;;20.73;8.70;;;;;;;-1.24;83.16;99529.19;4956845;28;20110;-51
2020/12/07 01:56:12;;;;;;;22.10;11.05;;;;;;;-1.24;83.30;99531.09;4955477;29;20047;-55
2020/12/07 01:58:41;;;;;;;16.67;9.13;;;;;;;-1.22;83.21;99531.63;4938965;29;20043;-54
2020/12/07 02:01:08;;;;;;;15.75;9.80;;;;;;;-1.20;83.14;99521.28;4953916;29;20040;-53
2020/12/07 02:03:35;;;;;;;18.42;9.43;;;;;;;-1.15;83.20;99523.09;4955875;29;20035;-48
2020/12/07 02:06:01;;;;;;;18.92;9.07;;;;;;;-1.11;82.91;99524.13;4964230;28;20085;-52
2020/12/07 02:08:27;;;;;;;21.58;9.65;;;;;;;-1.15;83.14;99513.03;4955705;29;20041;-51
2020/12/07 02:10:54;;;;;;;17.02;9.18;;;;;;;-1.15;83.15;99521.19;4954680;29;20130;-50
2020/12/07 02:13:20;;;;;;;17.92;9.80;;;;;;;-1.11;83.39;99514.03;4955990;29;20134;-49
2020/12/07 02:15:47;;;;;;;20.13;10.32;;;;;;;-1.07;83.67;99514.25;4955606;28;20122;-49
2020/12/07 02:18:13;;;;;;;20.85;10.57;;;;;;;-0.98;83.41;99507.03;4927924;29;20109;-50
2020/12/07 02:20:45;;;;;;;19.77;10.50;;;;;;;-0.92;83.36;99512.06;4955098;28;20121;-50
2020/12/07 02:23:12;;;;;;;27.15;12.60;;;;;;;-0.87;83.27;99511.16;4955741;29;20040;-48
2020/12/07 02:25:38;;;;;;;24.88;14.95;;;;;;;-0.89;83.02;99514.19;4955568;28;20437;-49
2020/12/07 02:28:07;;;;;;;25.25;12.55;;;;;;;-0.91;83.42;99507.44;4954585;28;20046;-48
2020/12/07 02:30:33;;;;;;;27.77;14.00;;;;;;;-0.90;83.34;99509.84;4955180;29;20391;-49
2020/12/07 02:33:00;;;;;;;31.02;14.52;;;;;;;-0.86;83.45;99505.44;4955000;29;20528;-51
2020/12/07 02:35:26;;;;;;;30.38;16.08;;;;;;;-0.80;83.29;99512.41;4955622;29;20048;-52
2020/12/07 02:37:52;;;;;;;26.45;14.38;;;;;;;-0.81;82.99;99513.50;4955560;29;20043;-52
2020/12/07 02:40:19;;;;;;;24.95;12.73;;;;;;;-0.83;82.83;99509.47;4955204;28;20524;-51
2020/12/07 02:42:45;;;;;;;26.70;11.75;;;;;;;-0.84;82.70;99505.13;4955954;29;20047;-51
2020/12/07 02:45:13;;;;;;;19.02;10.60;;;;;;;-0.85;82.82;99507.03;4953929;28;20438;-48
2020/12/07 02:47:41;;;;;;;20.15;11.68;;;;;;;-0.86;82.88;99510.88;4954517;29;20513;-48
2020/12/07 02:50:09;;;;;;;21.65;12.30;;;;;;;-0.84;83.13;99514.09;4954430;28;20094;-52
2020/12/07 02:52:36;;;;;;;23.52;10.50;;;;;;;-0.80;83.02;99504.25;4955164;29;20110;-49
2020/12/07 02:55:10;;;;;;;25.30;11.27;;;;;;;-0.78;82.80;99501.22;4954883;29;20498;-49
2020/12/07 02:57:37;;;;;;;25.10;11.75;;;;;;;-0.74;82.85;99513.91;4955246;28;20089;-51
2020/12/07 03:00:06;;;;;;;24.25;13.40;;;;;;;-0.73;82.97;99504.66;4953966;29;20043;-53
2020/12/07 03:02:34;;;;;;;23.00;12.48;;;;;;;-0.71;82.81;99502.44;4955267;28;20548;-53
2020/12/07 03:05:05;;;;;;;22.25;12.05;;;;;;;-0.70;82.94;99489.66;4954866;28;20078;-51
2020/12/07 03:07:31;;;;;;;25.20;11.75;;;;;;;-0.70;83.06;99498.63;4954900;28;20078;-52
2020/12/07 03:09:58;;;;;;;21.77;11.50;;;;;;;-0.70;82.97;99504.06;4955199;29;20071;-50
2020/12/07 03:12:26;;;;;;;30.23;11.95;;;;;;;-0.70;82.90;99504.06;4954843;29;20055;-51
2020/12/07 03:14:52;;;;;;;20.58;11.52;;;;;;;-0.67;83.13;99502.66;4954316;29;20047;-48
2020/12/07 03:17:19;;;;;;;19.92;10.20;;;;;;;-0.65;83.02;99516.72;4955895;28;20106;-52
2020/12/07 03:19:45;;;;;;;22.13;11.23;;;;;;;-0.64;83.24;99505.53;4953848;28;20486;-50
2020/12/07 03:22:11;;;;;;;23.05;10.38;;;;;;;-0.62;83.17;99492.50;4955205;29;20039;-49
2020/12/07 03:24:38;;;;;;;21.90;10.75;;;;;;;-0.62;83.14;99494.41;4955251;29;20050;-50
2020/12/07 03:27:04;;;;;;;21.00;12.23;;;;;;;-0.62;83.55;99489.78;4954661;29;20043;-51
2020/12/07 03:29:30;;;;;;;26.48;12.02;;;;;;;-0.57;83.30;99485.31;4954779;29;20082;-51
2020/12/07 03:31:57;;;;;;;25.20;11.02;;;;;;;-0.50;83.63;99488.47;4954959;28;20094;-51
2020/12/07 03:34:23;;;;;;;22.58;10.45;;;;;;;-0.50;83.57;99483.81;4955297;29;20367;-48
2020/12/07 03:36:50;;;;;;;21.00;10.77;;;;;;;-0.47;83.46;99479.69;4955541;28;20118;-47
2020/12/07 03:39:16;;;;;;;22.70;11.45;;;;;;;-0.43;83.52;99483.41;4958358;29;20043;-47
2020/12/07 03:41:42;;;;;;;20.73;10.70;;;;;;;-0.44;83.63;99474.44;4958481;29;20083;-51
2020/12/07 03:44:09;;;;;;;20.30;10.63;;;;;;;-0.41;83.66;99473.03;4958419;29;20502;-52
2020/12/07 03:46:35;;;;;;;23.38;12.07;;;;;;;-0.42;83.85;99477.66;4971494;28;20127;-52
2020/12/07 03:49:01;;;;;;;19.75;11.32;;;;;;;-0.38;83.48;99472.44;4962315;28;20405;-48
2020/12/07 03:51:27;;;;;;;22.55;10.10;;;;;;;-0.38;83.77;99469.72;4958352;29;20043;-51
2020/12/07 03:53:55;;;;;;;20.60;10.25;;;;;;;-0.36;83.86;99460.13;4957815;29;20043;-48
2020/12/07 03:56:21;;;;;;;21.50;10.68;;;;;;;-0.32;83.84;99466.56;4958558;29;20047;-52
2020/12/07 03:58:47;;;;;;;16.15;10.23;;;;;;;-0.30;84.14;99464.38;4940998;29;20465;-50
2020/12/07 04:01:13;;;;;;;24.30;10.98;;;;;;;-0.30;84.02;99458.94;4967820;28;20050;-49
2020/12/07 04:03:42;;;;;;;21.88;10.73;;;;;;;-0.27;84.16;99454.78;4966371;28;20541;-48
2020/12/07 04:06:44;;;;;;;18.20;10.77;;;;;;;-0.22;84.32;99460.13;4956621;29;20465;-53
2020/12/07 04:09:02;;;;;;;19.13;10.15;;;;;;;-0.17;84.22;99465.44;4956684;29;20063;-51
2020/12/07 04:11:28;;;;;;;21.88;10.93;;;;;;;-0.14;84.37;99451.22;4940601;29;20041;-49
2020/12/07 04:13:55;;;;;;;21.75;11.20;;;;;;;-0.08;84.31;99460.91;4958270;29;20070;-49
2020/12/07 04:16:26;;;;;;;21.00;10.05;;;;;;;-0.02;84.39;99463.19;4957844;28;20130;-53
2020/12/07 04:18:53;;;;;;;20.38;10.77;;;;;;;0.04;84.27;99479.38;4957959;29;20043;-51
2020/12/07 04:21:20;;;;;;;19.48;10.63;;;;;;;-0.06;84.26;99483.16;4958065;28;20063;-48
2020/12/07 04:23:46;;;;;;;21.48;11.35;;;;;;;-0.14;84.18;99475.72;4957787;28;20552;-51
2020/12/07 04:26:12;;;;;;;21.55;10.82;;;;;;;-0.22;84.21;99471.81;4957162;29;20075;-49
2020/12/07 04:28:39;;;;;;;19.80;9.80;;;;;;;-0.24;84.27;99470.50;4958322;28;20433;-50
2020/12/07 04:31:05;;;;;;;22.58;11.52;;;;;;;-0.26;84.17;99472.69;4956824;29;20047;-49
2020/12/07 04:33:31;;;;;;;21.35;10.50;;;;;;;-0.27;84.44;99468.38;4924407;29;20130;-48
2020/12/07 04:35:58;;;;;;;17.23;10.20;;;;;;;-0.26;84.15;99470.78;4938847;29;20075;-51
2020/12/07 04:38:24;;;;;;;21.27;10.35;;;;;;;-0.26;84.14;99472.69;4953672;29;20387;-48
2020/12/07 04:40:51;;;;;;;19.85;10.35;;;;;;;-0.25;84.08;99480.56;4958030;29;20512;-48
2020/12/07 04:43:18;;;;;;;18.42;9.68;;;;;;;-0.26;84.06;99475.41;4956985;29;20071;-48
2020/12/07 04:45:45;;;;;;;19.80;10.20;;;;;;;-0.28;84.27;99464.03;4956855;29;20504;-49
2020/12/07 04:48:12;;;;;;;19.77;10.00;;;;;;;-0.31;84.28;99470.09;4956886;28;20075;-49
2020/12/07 04:50:39;;;;;;;24.45;10.43;;;;;;;-0.28;84.22;99466.75;4956659;29;20044;-47
2020/12/07 04:53:05;;;;;;;22.30;10.95;;;;;;;-0.27;84.42;99466.47;4956863;28;20047;-52
2020/12/07 04:55:31;;;;;;;24.38;9.70;;;;;;;-0.23;84.34;99469.38;4957802;28;20094;-52
2020/12/07 04:57:59;;;;;;;19.15;10.10;;;;;;;-0.20;84.52;99468.78;4940282;29;20057;-49
2020/12/07 05:00:26;;;;;;;24.00;11.68;;;;;;;-0.16;84.64;99470.56;4956588;28;20114;-51
2020/12/07 05:02:55;;;;;;;20.08;10.38;;;;;;;-0.15;84.53;99460.50;4951246;29;20043;-48
2020/12/07 05:05:22;;;;;;;19.90;11.48;;;;;;;-0.10;84.87;99455.75;4963463;28;20441;-47
2020/12/07 05:07:51;;;;;;;22.73;11.55;;;;;;;-0.07;84.59;99457.84;4961773;28;20123;-47
2020/12/07 05:10:31;;;;;;;25.38;12.82;;;;;;;-0.05;84.89;99460.25;4956538;29;20058;-51
2020/12/07 05:13:42;;;;;;;21.95;11.05;;;;;;;0.00;85.02;99454.72;4955872;29;20043;-47
2020/12/07 05:15:47;;;;;;;20.30;11.35;;;;;;;0.06;84.85;99461.66;4948466;28;20082;-51
2020/12/07 05:18:14;;;;;;;23.55;11.25;;;;;;;0.09;84.89;99458.31;4972170;28;20044;-49
2020/12/07 05:20:41;;;;;;;21.33;10.73;;;;;;;0.11;84.94;99456.09;4956949;29;20074;-47
2020/12/07 05:23:07;;;;;;;22.35;11.73;;;;;;;0.16;85.03;99461.41;4956842;29;20067;-48
2020/12/07 05:25:34;;;;;;;23.90;12.07;;;;;;;0.19;85.12;99451.81;4955703;29;20131;-49
2020/12/07 05:28:01;;;;;;;25.98;13.00;;;;;;;0.21;85.09;99455.06;4956821;28;20047;-47
2020/12/07 05:30:35;;;;;;;23.20;11.63;;;;;;;0.23;85.26;99461.78;4960046;28;20122;-49
2020/12/07 05:33:03;;;;;;;22.08;11.88;;;;;;;0.25;85.05;99464.19;4956706;29;20078;-49
2020/12/07 05:35:29;;;;;;;26.15;12.70;;;;;;;0.28;85.28;99461.69;4956250;29;20082;-47
2020/12/07 05:38:02;;;;;;;21.25;10.75;;;;;;;0.30;85.51;99451.28;4955926;29;20130;-47
2020/12/07 05:40:29;;;;;;;22.77;11.40;;;;;;;0.36;85.74;99455.50;4956473;29;20098;-47
2020/12/07 05:42:59;;;;;;;24.17;11.15;;;;;;;0.39;85.53;99454.88;4956146;29;20045;-48
2020/12/07 05:45:26;;;;;;;27.13;13.30;;;;;;;0.44;85.79;99456.66;4956327;28;20048;-49
2020/12/07 05:47:53;;;;;;;24.30;11.68;;;;;;;0.47;85.78;99462.31;4956320;29;20039;-47
2020/12/07 05:50:21;;;;;;;27.60;12.60;;;;;;;0.52;85.73;99464.09;4955422;29;20138;-47
2020/12/07 05:52:52;;;;;;;21.58;11.65;;;;;;;0.55;85.90;99458.84;4955596;29;20070;-48
2020/12/07 05:55:20;;;;;;;25.17;12.55;;;;;;;0.58;85.64;99458.19;4956268;29;20106;-48
2020/12/07 05:57:56;;;;;;;24.95;12.35;;;;;;;0.61;85.90;99457.56;4938724;29;20048;-49
2020/12/07 06:00:24;;;;;;;25.77;12.02;;;;;;;0.63;85.94;99451.84;4953085;28;20095;-51
2020/12/07 06:02:52;;;;;;;24.90;12.55;;;;;;;0.64;85.69;99458.88;4944225;29;20081;-51
2020/12/07 06:05:23;;;;;;;28.02;13.98;;;;;;;0.65;86.00;99462.41;4955850;29;20039;-50
2020/12/07 06:08:20;;;;;;;26.30;12.93;;;;;;;0.63;85.83;99454.56;4937123;29;20098;-51
2020/12/07 06:10:59;;;;;;;24.63;12.70;;;;;;;0.63;85.87;99459.19;4955556;29;20137;-53
2020/12/07 06:13:28;;;;;;;24.73;11.93;;;;;;;0.64;86.02;99461.59;4956019;29;20053;-50
2020/12/07 06:15:54;;;;;;;24.65;11.82;;;;;;;0.64;85.95;99455.38;4957117;28;20082;-50
2020/12/07 06:18:31;;;;;;;21.25;12.23;;;;;;;0.63;85.97;99460.00;4955881;29;20071;-52
2020/12/07 06:21:00;;;;;;;26.60;12.98;;;;;;;0.65;85.89;99459.69;4955360;29;20043;-53
2020/12/07 06:23:36;;;;;;;23.70;12.10;;;;;;;0.63;85.96;99459.19;4955330;29;20466;-53
2020/12/07 06:26:05;;;;;;;27.65;13.38;;;;;;;0.63;86.24;99454.56;4955417;29;20139;-49
2020/12/07 06:28:34;;;;;;;30.75;14.35;;;;;;;0.61;86.09;99448.59;4954964;29;20051;-52
2020/12/07 06:31:08;;;;;;;26.75;12.95;;;;;;;0.61;86.18;99449.41;4954819;28;20135;-49
2020/12/07 06:33:48;;;;;;;25.27;13.40;;;;;;;0.61;85.96;99452.13;4955594;28;20120;-49
2020/12/07 06:36:22;;;;;;;27.52;13.00;;;;;;;0.59;86.11;99448.91;4955155;29;20110;-49
2020/12/07 06:38:48;;;;;;;22.83;13.25;;;;;;;0.59;85.94;99438.03;4955639;29;20134;-51
2020/12/07 06:41:35;;;;;;;27.95;13.25;;;;;;;0.56;85.92;99446.00;4955259;29;20078;-53
2020/12/07 06:44:10;;;;;;;29.45;14.00;;;;;;;0.53;85.81;99439.25;4955632;28;20462;-51
2020/12/07 06:47:16;;;;;;;23.15;13.10;;;;;;;0.53;86.02;99438.47;4953406;29;20130;-50
2020/12/07 06:49:59;;;;;;;28.83;14.52;;;;;;;0.52;85.81;99432.22;4940061;29;20071;-51
2020/12/07 06:52:28;;;;;;;29.90;13.68;;;;;;;0.52;85.77;99429.50;4938148;29;20062;-52
2020/12/07 06:55:13;;;;;;;25.92;14.43;;;;;;;0.52;85.83;99434.94;4955032;29;20042;-50
2020/12/07 06:57:44;;;;;;;23.63;14.45;;;;;;;0.55;85.78;99441.69;4955083;29;20562;-50
2020/12/07 07:00:18;;;;;;;25.95;13.20;;;;;;;0.53;85.88;99444.69;4954374;28;20510;-50
2020/12/07 07:02:49;;;;;;;26.70;13.55;;;;;;;0.52;86.09;99448.56;4955420;29;20078;-51
2020/12/07 07:05:18;;;;;;;26.10;13.88;;;;;;;0.52;85.89;99454.00;4954479;29;20576;-50
2020/12/07 07:07:44;;;;;;;25.05;12.60;;;;;;;0.53;86.02;99450.16;4955161;29;20046;-49
2020/12/07 07:10:13;;;;;;;26.92;13.00;;;;;;;0.55;86.00;99447.13;4954711;29;20043;-49
2020/12/07 07:12:42;;;;;;;19.58;11.07;;;;;;;0.53;85.92;99458.31;4954896;28;20051;-53
2020/12/07 07:15:10;;;;;;;26.55;12.57;;;;;;;0.53;85.98;99466.50;4951569;29;20065;-52
2020/12/07 07:17:39;;;;;;;27.83;12.18;;;;;;;0.53;86.06;99466.50;4962592;28;20052;-50
2020/12/07 07:20:13;;;;;;;24.08;11.75;;;;;;;0.51;85.77;99468.72;4954376;29;20393;-51
2020/12/07 07:22:43;;;;;;;22.73;11.57;;;;;;;0.48;85.92;99474.78;4938492;29;20051;-50
2020/12/07 07:30:22;;;;;;;20.52;11.50;;;;;;;0.45;86.13;99472.69;4956280;28;20050;-48
2020/12/07 07:32:50;;;;;;;24.70;12.05;;;;;;;0.47;86.08;99478.63;4968560;28;20071;-51
2020/12/07 07:35:24;;;;;;;26.35;11.63;;;;;;;0.49;86.07;99481.84;4954310;29;20130;-51
2020/12/07 07:37:51;;;;;;;22.83;12.25;;;;;;;0.53;86.01;99484.78;4954958;28;20051;-53
2020/12/07 07:40:20;;;;;;;26.27;13.15;;;;;;;0.55;85.76;99475.19;4954660;29;20039;-50
2020/12/07 07:42:52;;;;;;;26.83;13.05;;;;;;;0.56;85.81;99484.13;4953815;29;20039;-48
2020/12/07 07:45:31;;;;;;;29.10;13.07;;;;;;;0.57;86.08;99478.38;4937390;28;20090;-49
2020/12/07 07:54:23;;;;;;;25.80;13.38;;;;;;;0.64;85.79;99483.38;4948052;28;20078;-50
2020/12/07 08:18:29;;;;;;;27.80;16.25;;;;;;;0.75;85.87;99489.38;4935785;29;20073;-49
2020/12/07 08:20:58;;;;;;;28.08;16.30;;;;;;;0.76;86.20;99488.28;4934390;29;20067;-51
2020/12/07 08:23:27;;;;;;;33.85;17.30;;;;;;;0.79;86.15;99490.38;4951630;28;20051;-50
2020/12/07 08:25:53;;;;;;;38.10;19.98;;;;;;;0.81;86.08;99496.31;4954905;29;20202;-52
2020/12/07 08:28:42;;;;;;;34.33;17.65;;;;;;;0.83;86.00;99489.44;4954870;28;20445;-49
2020/12/07 08:31:09;;;;;;;31.33;15.68;;;;;;;0.84;86.22;99491.06;4955406;29;20057;-51
2020/12/07 08:34:01;;;;;;;31.77;17.40;;;;;;;0.83;86.06;99492.16;4955970;29;20047;-46
2020/12/07 08:36:32;;;;;;;40.10;19.88;;;;;;;0.84;86.10;99507.41;4941516;29;20055;-46
2020/12/07 08:38:59;;;;;;;36.97;19.55;;;;;;;0.83;86.15;99511.22;4954994;29;20047;-46
2020/12/07 08:41:30;;;;;;;35.30;17.65;;;;;;;0.83;86.13;99504.97;4955255;29;20047;-45
2020/12/07 08:44:02;;;;;;;30.08;16.90;;;;;;;0.83;86.28;99491.34;4966718;28;20386;-50
2020/12/07 08:46:32;;;;;;;26.00;14.68;;;;;;;0.84;86.43;99492.97;4956146;28;20133;-52
2020/12/07 08:49:00;;;;;;;42.63;23.40;;;;;;;0.85;86.16;99500.03;4954380;29;20490;-47
2020/12/07 08:51:29;;;;;;;46.25;23.65;;;;;;;0.86;86.21;99504.34;4955385;29;20098;-48
2020/12/07 08:53:56;;;;;;;38.92;21.25;;;;;;;0.88;86.26;99500.19;4956028;29;20043;-46
2020/12/07 08:56:23;;;;;;;36.15;20.48;;;;;;;0.93;86.53;99504.72;4955245;29;20168;-48
2020/12/07 08:58:50;;;;;;;38.08;20.27;;;;;;;0.96;86.51;99502.16;4955212;29;20059;-53
2020/12/07 09:01:16;;;;;;;42.35;22.52;;;;;;;1.00;86.33;99513.25;4955554;29;20126;-48
2020/12/07 09:03:44;;;;;;;40.60;20.38;;;;;;;1.02;86.34;99511.03;4956044;29;20445;-51
2020/12/07 09:06:12;;;;;;;36.60;21.17;;;;;;;1.06;86.25;99522.94;4960698;28;20078;-51
2020/12/07 09:08:46;;;;;;;38.58;21.27;;;;;;;1.09;86.32;99519.53;4953998;28;20529;-46
2020/12/07 09:11:14;;;;;;;40.20;19.30;;;;;;;1.11;86.39;99509.94;4960139;28;20070;-49
2020/12/07 09:13:41;;;;;;;36.45;17.77;;;;;;;1.13;86.19;99517.81;4948131;28;20378;-49
2020/12/07 09:16:08;;;;;;;40.03;19.38;;;;;;;1.14;86.55;99520.22;4951973;28;20434;-53
2020/12/07 09:18:35;;;;;;;39.42;21.42;;;;;;;1.19;86.43;99517.34;4939754;29;20043;-49
2020/12/07 09:21:06;;;;;;;32.38;20.02;;;;;;;1.20;86.23;99523.63;4937217;29;20112;-48
2020/12/07 09:23:34;;;;;;;41.13;23.20;;;;;;;1.23;86.32;99525.72;4952946;29;20058;-49
2020/12/07 09:26:02;;;;;;;50.45;24.08;;;;;;;1.24;86.32;99527.34;4965542;28;20043;-49
2020/12/07 09:28:30;;;;;;;38.80;22.80;;;;;;;1.26;86.35;99521.56;4972774;28;20050;-50
2020/12/07 09:30:56;;;;;;;33.10;20.00;;;;;;;1.27;86.27;99528.63;4949716;29;20424;-50
2020/12/07 09:33:23;;;;;;;28.35;15.32;;;;;;;1.31;86.28;99530.41;4953697;29;20556;-46
2020/12/07 09:35:49;;;;;;;17.27;9.60;;;;;;;1.36;86.63;99527.56;4929592;29;20533;-45
2020/12/07 09:38:15;;;;;;;17.90;9.00;;;;;;;1.42;86.89;99529.03;4954902;28;20089;-47
2020/12/07 09:40:42;;;;;;;16.08;8.07;;;;;;;1.47;86.91;99523.44;4954470;29;20058;-50
2020/12/07 09:43:08;;;;;;;12.38;6.85;;;;;;;1.52;86.98;99525.22;4941136;28;20579;-52
2020/12/07 09:45:36;;;;;;;11.23;6.65;;;;;;;1.56;86.92;99534.38;4955334;28;20082;-49
2020/12/07 09:48:02;;;;;;;11.60;7.07;;;;;;;1.61;87.04;99534.25;4953765;29;20102;-51
2020/12/07 09:50:33;;;;;;;18.77;7.45;;;;;;;1.65;87.34;99540.66;4953011;29;20846;-50
2020/12/07 09:52:59;;;;;;;15.25;6.85;;;;;;;1.66;87.19;99532.19;4952512;28;20067;-47
2020/12/07 09:55:26;;;;;;;14.05;7.60;;;;;;;1.71;87.65;99551.13;4934861;29;20478;-47
2020/12/07 09:57:53;;;;;;;21.30;8.27;;;;;;;1.75;87.40;99552.09;4954386;29;20047;-47
2020/12/07 10:00:19;;;;;;;14.77;9.10;;;;;;;1.78;87.55;99546.00;4954181;28;20122;-48
2020/12/07 10:02:46;;;;;;;19.38;8.80;;;;;;;1.82;87.87;99549.72;4954063;29;20050;-51
2020/12/07 10:05:13;;;;;;;20.95;8.93;;;;;;;1.87;87.49;99553.41;4937312;29;20047;-46
2020/12/07 10:07:40;;;;;;;24.25;9.35;;;;;;;1.93;87.63;99557.63;4954280;29;20043;-55
2020/12/07 10:10:06;;;;;;;17.90;8.95;;;;;;;2.00;87.91;99547.03;4953853;29;20074;-49
2020/12/07 10:12:33;;;;;;;18.17;9.77;;;;;;;2.06;88.21;99545.75;4953958;29;20050;-46
2020/12/07 10:15:04;;;;;;;20.88;9.70;;;;;;;2.13;88.06;99554.28;4953404;28;20537;-50
2020/12/07 10:17:30;;;;;;;24.35;10.55;;;;;;;2.20;88.03;99554.59;4965203;28;20165;-46
2020/12/07 10:19:56;;;;;;;21.70;10.32;;;;;;;2.26;88.42;99562.34;4953481;29;20402;-47
2020/12/07 10:22:23;;;;;;;26.52;10.40;;;;;;;2.29;88.52;99552.69;4953895;29;20042;-46
2020/12/07 10:24:49;;;;;;;21.45;10.13;;;;;;;2.33;88.60;99556.41;4952774;29;20122;-49
2020/12/07 10:27:15;;;;;;;19.40;9.48;;;;;;;2.41;88.51;99558.31;4954208;29;20051;-47
2020/12/07 10:29:41;;;;;;;26.00;10.27;;;;;;;2.47;88.85;99549.66;4953226;28;20131;-50
2020/12/07 10:32:08;;;;;;;24.88;11.25;;;;;;;2.54;88.59;99554.66;4952620;29;20055;-47
2020/12/07 10:34:34;;;;;;;20.67;9.00;;;;;;;2.58;88.96;99541.16;4945986;29;20047;-50
2020/12/07 10:37:01;;;;;;;19.13;9.32;;;;;;;2.60;88.68;99542.44;4952431;29;20462;-48
2020/12/07 10:39:27;;;;;;;10.60;6.05;;;;;;;2.64;88.76;99542.59;4953519;28;20050;-47
2020/12/07 10:41:53;;;;;;;9.10;5.35;;;;;;;2.64;88.85;99551.59;4952335;29;20039;-51
2020/12/07 10:44:19;;;;;;;16.15;8.00;;;;;;;2.67;88.90;99550.97;4953932;28;20138;-49
2020/12/07 10:46:49;;;;;;;22.15;8.82;;;;;;;2.72;89.05;99548.06;4951899;28;20139;-50
2020/12/07 10:49:16;;;;;;;18.60;9.13;;;;;;;2.77;89.13;99549.81;4951284;28;20094;-51
2020/12/07 10:51:45;;;;;;;16.30;7.32;;;;;;;2.82;89.22;99542.25;4952641;29;20101;-53
2020/12/07 10:54:11;;;;;;;12.70;6.03;;;;;;;2.88;88.97;99538.25;4919322;29;20107;-50
2020/12/07 10:56:37;;;;;;;19.38;7.32;;;;;;;2.93;88.89;99537.28;4952748;28;20074;-51
2020/12/07 10:59:04;;;;;;;14.93;6.68;;;;;;;2.94;88.89;99534.19;4952871;29;20150;-52
2020/12/07 11:01:30;;;;;;;13.50;6.47;;;;;;;2.94;88.96;99536.94;4963197;28;20094;-55
2020/12/07 11:03:56;;;;;;;16.08;7.55;;;;;;;2.94;88.76;99536.94;4942132;28;20118;-52
2020/12/07 11:06:32;;;;;;;18.42;7.63;;;;;;;2.92;88.98;99541.13;4965008;28;20039;-50
2020/12/07 11:09:03;;;;;;;21.67;7.45;;;;;;;2.92;89.23;99541.94;4935412;29;20130;-51
2020/12/07 11:11:31;;;;;;;15.32;8.43;;;;;;;2.99;89.26;99539.50;4935630;29;20041;-49
2020/12/07 11:14:00;;;;;;;14.23;7.50;;;;;;;3.09;89.10;99541.09;4954673;28;20044;-50
2020/12/07 11:16:27;;;;;;;13.55;7.45;;;;;;;3.20;89.38;99536.91;4957919;28;20090;-48
2020/12/07 11:18:54;;;;;;;14.85;7.93;;;;;;;3.33;88.97;99543.28;4935501;29;20067;-48
2020/12/07 11:21:20;;;;;;;13.88;6.88;;;;;;;3.44;89.22;99531.66;4953359;28;20098;-50
2020/12/07 11:23:48;;;;;;;14.48;7.78;;;;;;;3.59;89.45;99535.78;4951886;29;20070;-49
2020/12/07 11:26:19;;;;;;;13.02;6.82;;;;;;;3.68;89.02;99531.06;4953577;28;20063;-50
2020/12/07 11:28:46;;;;;;;10.45;6.57;;;;;;;3.74;89.00;99535.22;4951269;28;20039;-49
2020/12/07 11:31:14;;;;;;;13.02;7.88;;;;;;;3.79;89.42;99524.09;4952610;28;20102;-47
2020/12/07 11:33:42;;;;;;;11.77;7.53;;;;;;;3.84;89.29;99531.34;4953290;28;20055;-48
2020/12/07 11:36:13;;;;;;;13.18;6.20;;;;;;;3.86;88.92;99524.41;4953385;29;20593;-47
2020/12/07 11:46:22;;;;;;;12.30;7.18;;;;;;;3.66;88.52;99516.91;4948682;29;20102;-52
2020/12/07 11:48:48;;;;;;;12.82;7.05;;;;;;;3.60;88.04;99518.25;4952524;29;20063;-53
2020/12/07 11:51:14;;;;;;;14.80;7.13;;;;;;;3.58;88.28;99525.97;4950427;29;20509;-53
2020/12/07 11:53:41;;;;;;;18.75;8.13;;;;;;;3.58;88.05;99520.50;4949606;29;20039;-52
2020/12/07 11:56:07;;;;;;;7.25;4.65;;;;;;;3.59;88.37;99524.84;4953194;29;20110;-48
2020/12/07 11:58:33;;;;;;;14.55;5.90;;;;;;;3.62;88.25;99515.97;4942892;29;20043;-50
2020/12/07 12:01:00;;;;;;;7.35;5.05;;;;;;;3.64;88.26;99513.72;4936455;29;20067;-51
2020/12/07 12:03:26;;;;;;;7.82;4.65;;;;;;;3.68;88.12;99517.38;4937006;29;20055;-49
2020/12/07 12:05:52;;;;;;;8.73;4.85;;;;;;;3.73;88.24;99513.69;4936489;29;20082;-51
2020/12/07 12:08:19;;;;;;;5.55;3.83;;;;;;;3.77;88.44;99511.88;4937230;29;20036;-49
2020/12/07 12:10:48;;;;;;;5.82;4.00;;;;;;;3.82;88.62;99508.94;4937173;29;20075;-49